Time;durP1;ratioP1;P1;durP2;ratioP2;P2;SDS_P1;SDS_P2;PMS_P1;PMS_P2;Temp;Humidity;BMP_temperature;BMP_pressure;BME280_temperature;BME280_humidity;BME280_pressure;Samples;Min_cycle;Max_cycle;Signal;HPM_P1;HPM_P2
2023/06/13 00:01:19;;;;;;;7.70;5.73;;;16.80;99.80;;;;;;4978973;28;20680;-76
2023/06/13 00:03:49;;;;;;;6.33;5.67;;;16.80;99.30;;;;;;4968931;28;20225;-77
2023/06/13 00:06:17;;;;;;;8.13;6.83;;;16.80;99.70;;;;;;4970563;28;20202;-77
2023/06/13 00:08:44;;;;;;;7.00;6.30;;;16.80;99.50;;;;;;4971985;28;20221;-77
2023/06/13 00:11:11;;;;;;;6.80;6.10;;;16.80;99.70;;;;;;4961834;28;20715;-77
2023/06/13 00:13:39;;;;;;;5.63;4.70;;;16.80;99.90;;;;;;4968846;28;20319;-77
2023/06/13 00:16:07;;;;;;;6.50;5.90;;;16.70;99.90;;;;;;4970523;28;20210;-77
2023/06/13 00:18:37;;;;;;;6.60;6.03;;;16.60;99.90;;;;;;4963665;28;20665;-77
2023/06/13 00:21:06;;;;;;;6.37;5.80;;;16.70;99.90;;;;;;4966493;28;20199;-77
2023/06/13 00:23:33;;;;;;;7.23;6.60;;;16.60;99.90;;;;;;4961556;28;20211;-77
2023/06/13 00:26:00;;;;;;;6.07;3.83;;;16.60;99.90;;;;;;4963077;28;20261;-77
2023/06/13 00:28:27;;;;;;;6.40;4.13;;;16.60;99.90;;;;;;4963378;28;20246;-76
2023/06/13 00:30:54;;;;;;;6.17;3.80;;;16.50;99.90;;;;;;4964713;28;20209;-76
2023/06/13 00:33:21;;;;;;;5.47;4.23;;;16.60;99.70;;;;;;4963777;28;20288;-77
2023/06/13 00:35:48;;;;;;;4.47;4.00;;;16.60;99.90;;;;;;4970607;28;20206;-77
2023/06/13 00:38:20;;;;;;;5.43;4.93;;;16.50;99.90;;;;;;4959392;28;20210;-77
2023/06/13 00:40:48;;;;;;;5.03;4.17;;;16.50;99.90;;;;;;4968147;28;20304;-77
2023/06/13 00:43:17;;;;;;;6.30;5.70;;;16.40;99.90;;;;;;4962935;28;20282;-77
2023/06/13 00:45:44;;;;;;;5.17;4.07;;;16.30;99.90;;;;;;4964332;28;20209;-77
2023/06/13 00:48:11;;;;;;;6.60;6.00;;;16.30;99.90;;;;;;4964602;28;20665;-76
2023/06/13 00:50:43;;;;;;;6.50;5.90;;;16.30;99.90;;;;;;4965225;28;20268;-77
2023/06/13 00:53:16;;;;;;;4.83;3.80;;;16.20;99.90;;;;;;4962881;28;20269;-77
2023/06/13 00:55:45;;;;;;;5.03;3.60;;;16.20;99.90;;;;;;4969493;28;20211;-77
2023/06/13 00:58:13;;;;;;;4.17;3.70;;;16.20;99.90;;;;;;4958198;28;20214;-77
2023/06/13 01:00:43;;;;;;;6.00;5.40;;;16.10;99.90;;;;;;4960208;28;20261;-77
2023/06/13 01:03:15;;;;;;;6.77;5.97;;;16.00;99.90;;;;;;4964207;28;20697;-77
2023/06/13 01:05:42;;;;;;;6.37;5.87;;;16.10;99.90;;;;;;4966923;28;20249;-77
2023/06/13 01:08:12;;;;;;;6.57;5.93;;;16.10;99.90;;;;;;4964435;28;20307;-77
2023/06/13 01:10:41;;;;;;;6.43;5.80;;;16.10;99.90;;;;;;4962049;28;20194;-77
2023/06/13 01:13:18;;;;;;;5.53;4.00;;;16.00;99.90;;;;;;4962767;28;20289;-76
2023/06/13 01:15:52;;;;;;;3.80;3.50;;;16.00;99.90;;;;;;4964089;28;20256;-77
2023/06/13 01:18:22;;;;;;;4.27;3.63;;;15.90;99.90;;;;;;4961315;28;20711;-77
2023/06/13 01:20:56;;;;;;;6.00;5.50;;;15.90;99.90;;;;;;4971727;28;20297;-77
2023/06/13 01:23:31;;;;;;;4.90;3.87;;;15.80;99.90;;;;;;4961071;28;20248;-77
2023/06/13 01:26:04;;;;;;;5.00;4.33;;;15.70;99.90;;;;;;4960013;28;20193;-76
2023/06/13 01:28:33;;;;;;;4.37;3.87;;;15.70;99.90;;;;;;4980182;28;20228;-77
2023/06/13 01:31:02;;;;;;;6.90;6.20;;;15.70;99.90;;;;;;4974443;28;20617;-77
2023/06/13 01:33:29;;;;;;;4.50;3.50;;;15.60;99.90;;;;;;4965982;28;20645;-77
2023/06/13 01:35:56;;;;;;;4.93;3.53;;;15.60;99.90;;;;;;4962126;28;20210;-77
2023/06/13 01:38:24;;;;;;;4.63;4.17;;;15.60;99.90;;;;;;4961942;28;20902;-77
2023/06/13 01:40:50;;;;;;;5.47;4.97;;;15.60;99.90;;;;;;4964575;28;20208;-78
2023/06/13 01:43:17;;;;;;;3.87;3.47;;;15.60;99.90;;;;;;4959717;28;20261;-75
2023/06/13 01:45:46;;;;;;;5.47;3.77;;;15.60;99.90;;;;;;4957106;28;20242;-76
2023/06/13 01:48:19;;;;;;;6.77;5.97;;;15.70;99.90;;;;;;4963616;28;20232;-75
2023/06/13 01:50:51;;;;;;;6.40;5.80;;;15.80;99.90;;;;;;4979318;28;20603;-76
2023/06/13 01:53:26;;;;;;;5.57;3.60;;;15.70;99.90;;;;;;4958091;28;20780;-76
2023/06/13 01:56:00;;;;;;;3.87;3.40;;;15.70;99.90;;;;;;4967539;28;20209;-76
2023/06/13 01:58:34;;;;;;;4.20;3.63;;;15.60;99.90;;;;;;4958138;28;20200;-75
2023/06/13 02:01:04;;;;;;;5.57;3.80;;;15.60;99.90;;;;;;4972950;28;20198;-76
2023/06/13 02:03:32;;;;;;;3.60;3.27;;;15.60;99.90;;;;;;4955756;28;20233;-76
2023/06/13 02:05:59;;;;;;;3.90;3.40;;;15.60;99.90;;;;;;4955126;28;20727;-76
2023/06/13 02:08:28;;;;;;;5.03;3.57;;;15.60;99.90;;;;;;4968323;28;20227;-77
2023/06/13 02:10:55;;;;;;;3.80;3.40;;;15.60;99.90;;;;;;4958497;28;20289;-76
2023/06/13 02:13:23;;;;;;;4.23;3.30;;;15.60;99.90;;;;;;4963861;28;20580;-76
2023/06/13 02:15:50;;;;;;;5.03;4.00;;;15.60;99.90;;;;;;4965664;28;20279;-75
2023/06/13 02:18:18;;;;;;;5.70;3.60;;;15.60;99.90;;;;;;4960976;28;20240;-76
2023/06/13 02:20:45;;;;;;;5.47;4.20;;;15.60;99.90;;;;;;4962425;28;20213;-75
2023/06/13 02:23:12;;;;;;;9.20;4.80;;;15.70;99.90;;;;;;4961328;28;20219;-75
2023/06/13 02:25:41;;;;;;;4.93;4.47;;;15.80;99.90;;;;;;4962532;28;20556;-76
2023/06/13 02:28:08;;;;;;;7.00;4.17;;;15.80;99.90;;;;;;4967647;28;20270;-76
2023/06/13 02:30:35;;;;;;;5.10;3.57;;;15.80;99.90;;;;;;4961066;28;20212;-76
2023/06/13 02:33:02;;;;;;;4.80;3.80;;;15.90;99.90;;;;;;4965179;28;20252;-76
2023/06/13 02:35:30;;;;;;;4.33;3.73;;;15.90;99.90;;;;;;4965246;28;20214;-77
2023/06/13 02:37:57;;;;;;;5.83;3.70;;;15.90;99.90;;;;;;4965849;28;20202;-76
2023/06/13 02:40:24;;;;;;;7.27;4.03;;;15.90;99.90;;;;;;4960998;28;20210;-77
2023/06/13 02:42:53;;;;;;;8.10;3.77;;;16.00;99.90;;;;;;4964483;28;20227;-75
2023/06/13 02:45:20;;;;;;;5.47;3.90;;;16.00;99.90;;;;;;4958648;28;20285;-76
2023/06/13 02:47:47;;;;;;;4.97;4.03;;;16.00;99.90;;;;;;4959015;28;20213;-77
2023/06/13 02:50:15;;;;;;;5.87;3.50;;;15.90;99.90;;;;;;4961566;28;20792;-78
2023/06/13 02:52:44;;;;;;;6.03;3.80;;;15.90;99.90;;;;;;4968536;28;20239;-78
2023/06/13 02:55:10;;;;;;;4.50;3.50;;;15.90;99.90;;;;;;4985011;28;20206;-78
2023/06/13 02:57:38;;;;;;;6.73;3.80;;;15.90;99.90;;;;;;4972621;28;20201;-76
2023/06/13 03:00:08;;;;;;;6.37;3.50;;;15.90;99.90;;;;;;4974866;28;20718;-76
2023/06/13 03:02:37;;;;;;;5.10;3.77;;;15.80;99.90;;;;;;4973880;28;20209;-75
2023/06/13 03:05:07;;;;;;;4.40;3.50;;;15.70;99.90;;;;;;4966991;28;20197;-75
2023/06/13 03:07:35;;;;;;;5.60;5.10;;;15.70;99.90;;;;;;4962520;28;20247;-76
2023/06/13 03:10:05;;;;;;;5.03;4.47;;;15.60;99.90;;;;;;4989765;28;20264;-75
2023/06/13 03:12:37;;;;;;;4.13;3.37;;;15.50;99.90;;;;;;4973710;28;20662;-76
2023/06/13 03:15:06;;;;;;;7.47;3.70;;;15.40;99.90;;;;;;4988965;28;20770;-78
2023/06/13 03:17:34;;;;;;;6.23;5.67;;;15.20;99.90;;;;;;4975173;28;20212;-82
2023/06/13 03:20:05;;;;;;;6.50;5.50;;;15.20;99.90;;;;;;4961972;28;20650;-80
2023/06/13 03:22:32;;;;;;;4.50;3.50;;;15.10;99.90;;;;;;4974673;28;20228;-80
2023/06/13 03:25:04;;;;;;;6.07;5.17;;;15.00;99.90;;;;;;4960844;28;20870;-79
2023/06/13 03:27:34;;;;;;;5.20;4.67;;;15.00;99.90;;;;;;4961283;28;20196;-79
2023/06/13 03:30:01;;;;;;;4.10;3.70;;;15.00;99.90;;;;;;4960808;28;20248;-79
2023/06/13 03:32:29;;;;;;;6.57;5.97;;;14.90;99.90;;;;;;4962823;28;20220;-78
2023/06/13 03:34:56;;;;;;;6.50;5.57;;;14.90;99.90;;;;;;4971157;28;20297;-79
2023/06/13 03:37:23;;;;;;;6.90;6.20;;;14.80;99.90;;;;;;4961715;28;20224;-79
2023/06/13 03:39:50;;;;;;;4.50;3.70;;;14.70;99.90;;;;;;4962920;28;20197;-78
2023/06/13 03:42:17;;;;;;;7.10;4.50;;;14.70;99.90;;;;;;4954749;28;20208;-79
2023/06/13 03:44:48;;;;;;;6.60;6.00;;;14.60;99.90;;;;;;4968140;28;20237;-80
2023/06/13 03:47:15;;;;;;;4.43;3.80;;;14.60;99.90;;;;;;4991088;28;20216;-79
2023/06/13 03:49:43;;;;;;;4.50;3.73;;;14.70;99.90;;;;;;4979025;28;20274;-79
2023/06/13 03:52:10;;;;;;;6.90;6.30;;;14.70;99.90;;;;;;4975129;28;20200;-79
2023/06/13 03:54:37;;;;;;;7.17;6.37;;;14.70;99.90;;;;;;4975880;28;20734;-79
2023/06/13 03:57:05;;;;;;;6.73;6.03;;;14.60;99.90;;;;;;4974463;28;20200;-78
2023/06/13 03:59:32;;;;;;;6.50;6.00;;;14.50;99.90;;;;;;4974566;28;20714;-77
2023/06/13 04:02:00;;;;;;;7.03;5.57;;;14.50;99.90;;;;;;4968921;28;20200;-76
2023/06/13 04:04:27;;;;;;;6.70;6.10;;;14.50;99.90;;;;;;4965970;28;20242;-77
2023/06/13 04:06:55;;;;;;;5.93;3.70;;;14.50;99.90;;;;;;4962201;28;20297;-76
2023/06/13 04:09:23;;;;;;;4.87;3.67;;;14.60;99.90;;;;;;4960630;28;20229;-77
2023/06/13 04:11:50;;;;;;;4.67;3.60;;;14.50;99.90;;;;;;4961637;28;20201;-76
2023/06/13 04:14:17;;;;;;;4.10;3.50;;;14.50;99.90;;;;;;4981493;28;20225;-76
2023/06/13 04:16:44;;;;;;;3.60;3.20;;;14.50;99.90;;;;;;4962742;28;20223;-77
2023/06/13 04:19:18;;;;;;;7.40;3.97;;;14.50;99.90;;;;;;4957120;28;20206;-76
2023/06/13 04:21:46;;;;;;;5.20;3.90;;;14.60;99.90;;;;;;4964914;28;20199;-77
2023/06/13 04:24:15;;;;;;;6.30;3.80;;;14.70;99.90;;;;;;4960582;28;20668;-76
2023/06/13 04:26:45;;;;;;;7.83;3.90;;;14.70;99.90;;;;;;4962485;28;20636;-77
2023/06/13 04:29:13;;;;;;;6.83;4.07;;;14.90;99.90;;;;;;4958521;28;20252;-77
2023/06/13 04:31:40;;;;;;;6.27;4.20;;;15.00;99.90;;;;;;4958013;28;20204;-77
2023/06/13 04:34:07;;;;;;;5.07;3.50;;;15.10;99.90;;;;;;4957771;28;20229;-77
2023/06/13 04:36:38;;;;;;;4.70;3.30;;;15.30;99.90;;;;;;4958448;28;20721;-77
2023/06/13 04:39:06;;;;;;;5.67;5.17;;;15.40;99.90;;;;;;4956456;28;20229;-77
2023/06/13 04:41:34;;;;;;;5.23;4.70;;;15.60;99.90;;;;;;4959141;28;20208;-77
2023/06/13 04:44:05;;;;;;;4.53;4.13;;;15.80;99.90;;;;;;4963936;28;20602;-76
2023/06/13 04:46:32;;;;;;;4.27;3.80;;;15.90;99.90;;;;;;4968003;28;20258;-76
2023/06/13 04:49:00;;;;;;;5.87;5.30;;;16.10;99.90;;;;;;4957083;28;20222;-77
2023/06/13 04:51:27;;;;;;;5.80;4.90;;;16.80;99.90;;;;;;4958739;28;20202;-77
2023/06/13 04:53:58;;;;;;;7.23;4.13;;;17.50;99.90;;;;;;4960455;28;20217;-77
2023/06/13 04:56:27;;;;;;;5.60;5.10;;;17.90;99.90;;;;;;4957632;28;20506;-77
2023/06/13 04:58:53;;;;;;;5.60;5.10;;;18.10;99.90;;;;;;4956585;28;20199;-76
2023/06/13 05:01:20;;;;;;;7.47;4.80;;;18.00;99.90;;;;;;4961800;28;20258;-77
2023/06/13 05:03:51;;;;;;;7.03;5.30;;;17.80;99.90;;;;;;4957959;28;20233;-77
2023/06/13 05:06:18;;;;;;;4.77;3.90;;;17.80;99.90;;;;;;4958973;28;20207;-77
2023/06/13 05:08:44;;;;;;;5.40;3.70;;;17.70;99.90;;;;;;4959540;28;20222;-77
2023/06/13 05:11:13;;;;;;;5.50;5.00;;;17.70;99.90;;;;;;4960391;28;20198;-77
2023/06/13 05:13:40;;;;;;;5.37;3.87;;;17.90;99.90;;;;;;4957676;28;20223;-77
2023/06/13 05:16:07;;;;;;;6.83;5.23;;;18.00;99.90;;;;;;4958874;28;20685;-77
2023/06/13 05:18:34;;;;;;;6.03;5.50;;;18.20;99.90;;;;;;4953905;28;20206;-77
2023/06/13 05:21:01;;;;;;;5.60;5.20;;;18.40;99.90;;;;;;4964472;28;20197;-77
2023/06/13 05:23:29;;;;;;;7.97;6.03;;;18.40;99.90;;;;;;4959538;28;20236;-77
2023/06/13 05:25:56;;;;;;;4.33;3.77;;;18.50;99.90;;;;;;4962259;28;20252;-77
2023/06/13 05:28:24;;;;;;;5.30;4.80;;;18.50;99.90;;;;;;4959721;28;20206;-77
2023/06/13 05:30:51;;;;;;;6.17;5.67;;;18.40;99.90;;;;;;4960335;28;20213;-76
2023/06/13 05:33:18;;;;;;;4.70;4.13;;;18.30;99.90;;;;;;4955501;28;20699;-77
2023/06/13 05:35:45;;;;;;;4.90;4.40;;;18.40;99.90;;;;;;4960477;28;20939;-77
2023/06/13 05:38:12;;;;;;;4.27;3.87;;;18.60;99.90;;;;;;4954297;28;20635;-77
2023/06/13 05:40:40;;;;;;;4.10;3.57;;;18.90;99.90;;;;;;4958491;28;20195;-77
2023/06/13 05:43:08;;;;;;;6.57;3.77;;;19.30;99.40;;;;;;4961647;28;20241;-77
2023/06/13 05:45:36;;;;;;;5.80;3.87;;;20.00;98.70;;;;;;4961259;28;20599;-77
2023/06/13 05:48:02;;;;;;;4.87;3.70;;;20.60;98.00;;;;;;4962907;28;20611;-77
2023/06/13 05:50:29;;;;;;;4.23;3.60;;;21.30;96.80;;;;;;4960593;28;20743;-77
2023/06/13 05:52:56;;;;;;;4.60;3.50;;;21.80;96.20;;;;;;4960640;28;20252;-77
2023/06/13 05:55:23;;;;;;;4.23;3.40;;;22.30;96.00;;;;;;4955262;28;20199;-77
2023/06/13 05:57:50;;;;;;;4.43;3.27;;;22.60;94.20;;;;;;4955913;28;20223;-77
2023/06/13 06:00:17;;;;;;;5.00;3.30;;;23.00;93.00;;;;;;4959013;28;20206;-77
2023/06/13 06:02:47;;;;;;;5.70;3.40;;;23.30;92.00;;;;;;4959091;28;20222;-76
2023/06/13 06:05:14;;;;;;;3.93;3.07;;;23.30;91.90;;;;;;4967048;28;20628;-77
2023/06/13 06:07:42;;;;;;;3.97;3.63;;;23.40;88.90;;;;;;4962879;28;20202;-76
2023/06/13 06:10:10;;;;;;;6.27;3.10;;;23.30;89.10;;;;;;4958501;28;20214;-77
2023/06/13 06:12:37;;;;;;;11.00;4.23;;;23.10;87.70;;;;;;4956144;28;20254;-77
2023/06/13 06:15:05;;;;;;;4.37;3.37;;;23.40;88.40;;;;;;4955881;28;20202;-77
2023/06/13 06:17:31;;;;;;;3.70;3.27;;;23.70;86.40;;;;;;4958442;28;20211;-77
2023/06/13 06:20:00;;;;;;;4.97;4.10;;;23.30;85.70;;;;;;4960927;28;20195;-76
2023/06/13 06:22:27;;;;;;;3.97;3.50;;;23.30;86.10;;;;;;4957140;28;20191;-76
2023/06/13 06:24:53;;;;;;;5.77;3.03;;;23.80;87.10;;;;;;4958432;28;20229;-77
2023/06/13 06:27:20;;;;;;;5.27;3.53;;;24.00;85.00;;;;;;4958895;28;20195;-76
2023/06/13 06:29:47;;;;;;;4.57;3.53;;;23.90;82.90;;;;;;4956951;28;20268;-77
2023/06/13 06:32:14;;;;;;;6.30;4.70;;;24.40;83.90;;;;;;4957001;28;20233;-77
2023/06/13 06:34:40;;;;;;;4.83;4.43;;;24.10;81.90;;;;;;4960390;28;20218;-77
2023/06/13 06:37:09;;;;;;;6.67;3.60;;;24.10;83.00;;;;;;4955574;28;20249;-77
2023/06/13 06:39:36;;;;;;;4.47;3.97;;;24.40;80.70;;;;;;4962496;28;20198;-77
2023/06/13 06:42:03;;;;;;;5.53;4.60;;;24.30;79.50;;;;;;4970114;28;20294;-79
2023/06/13 06:44:42;;;;;;;4.77;4.27;;;24.10;80.30;;;;;;4959510;28;20277;-80
2023/06/13 06:47:09;;;;;;;4.33;3.93;;;23.90;81.70;;;;;;4964453;28;20193;-79
2023/06/13 06:49:36;;;;;;;5.53;4.00;;;24.20;83.70;;;;;;4968847;28;20214;-80
2023/06/13 06:52:03;;;;;;;6.70;4.40;;;24.60;83.50;;;;;;4961702;28;20202;-80
2023/06/13 06:54:31;;;;;;;6.23;4.73;;;24.20;80.10;;;;;;4956405;28;20634;-80
2023/06/13 06:56:58;;;;;;;7.23;4.60;;;24.30;81.10;;;;;;4959976;28;20568;-80
2023/06/13 06:59:25;;;;;;;7.10;4.70;;;23.60;81.80;;;;;;4967355;28;20246;-79
2023/06/13 07:01:52;;;;;;;5.23;4.67;;;23.60;81.30;;;;;;4971080;28;20202;-79
2023/06/13 07:04:18;;;;;;;5.67;4.83;;;23.30;82.80;;;;;;4966296;28;20257;-79
2023/06/13 07:06:45;;;;;;;3.77;3.13;;;23.50;82.90;;;;;;4966206;28;20206;-82
2023/06/13 07:09:13;;;;;;;4.67;3.93;;;23.60;80.90;;;;;;4959957;28;20195;-76
2023/06/13 07:11:41;;;;;;;4.37;3.10;;;23.60;80.50;;;;;;4961395;28;20194;-77
2023/06/13 07:14:08;;;;;;;5.03;3.40;;;24.20;81.30;;;;;;4962181;28;20709;-77
2023/06/13 07:16:35;;;;;;;6.47;4.13;;;24.10;81.00;;;;;;4961276;28;20225;-77
2023/06/13 07:19:02;;;;;;;7.10;3.40;;;23.40;80.50;;;;;;4963733;28;20194;-76
2023/06/13 07:21:29;;;;;;;4.37;3.93;;;23.40;82.90;;;;;;4960524;28;20190;-76
2023/06/13 07:23:56;;;;;;;5.17;3.97;;;23.80;81.10;;;;;;4968304;28;20222;-77
2023/06/13 07:26:22;;;;;;;3.13;2.80;;;24.40;80.20;;;;;;4958455;28;20226;-77
2023/06/13 07:28:51;;;;;;;3.77;3.43;;;23.80;77.80;;;;;;4960419;28;20714;-77
2023/06/13 07:31:17;;;;;;;10.40;5.27;;;24.00;79.10;;;;;;4961359;28;20850;-76
2023/06/13 07:33:44;;;;;;;6.07;3.80;;;24.10;78.10;;;;;;4963882;28;20219;-77
2023/06/13 07:36:11;;;;;;;6.70;3.77;;;24.30;77.10;;;;;;4961811;28;20237;-76
2023/06/13 07:38:38;;;;;;;3.60;3.20;;;24.30;80.00;;;;;;4959933;28;20199;-76
2023/06/13 07:41:06;;;;;;;4.90;3.10;;;24.90;80.90;;;;;;4965254;28;20245;-75
2023/06/13 07:43:33;;;;;;;4.50;3.40;;;25.50;77.70;;;;;;4963887;28;20215;-76
2023/06/13 07:46:01;;;;;;;5.80;4.60;;;25.70;77.80;;;;;;4962802;28;20203;-76
2023/06/13 07:48:28;;;;;;;7.17;5.80;;;25.30;74.50;;;;;;4967319;28;20202;-76
2023/06/13 07:50:55;;;;;;;6.90;5.53;;;25.30;75.70;;;;;;4974375;28;20250;-76
2023/06/13 07:53:21;;;;;;;5.70;4.43;;;25.10;74.70;;;;;;4974591;28;20298;-78
2023/06/13 07:55:53;;;;;;;4.57;3.87;;;24.90;75.70;;;;;;4974052;28;20260;-77
2023/06/13 07:58:19;;;;;;;5.73;5.23;;;24.70;76.90;;;;;;4975884;28;20276;-77
2023/06/13 08:00:46;;;;;;;5.77;3.87;;;25.00;76.30;;;;;;4976547;28;20265;-77
2023/06/13 08:03:14;;;;;;;6.13;5.50;;;25.50;77.40;;;;;;4964631;28;20233;-77
2023/06/13 08:05:41;;;;;;;4.60;3.53;;;25.30;74.10;;;;;;4974029;28;20194;-81
2023/06/13 08:08:08;;;;;;;4.63;4.13;;;25.10;72.90;;;;;;4965625;28;20228;-81
2023/06/13 08:10:35;;;;;;;6.63;3.27;;;25.00;73.80;;;;;;4957488;28;20599;-82
2023/06/13 08:13:02;;;;;;;5.10;3.90;;;24.50;76.10;;;;;;4959927;28;20215;-81
2023/06/13 08:15:29;;;;;;;4.10;3.70;;;24.90;75.60;;;;;;4963579;28;20206;-79
2023/06/13 08:17:57;;;;;;;5.70;4.00;;;24.30;74.70;;;;;;4961906;28;20214;-80
2023/06/13 08:20:25;;;;;;;8.97;4.93;;;24.20;76.90;;;;;;4974681;28;20217;-78
2023/06/13 08:22:52;;;;;;;7.00;5.70;;;24.80;75.70;;;;;;4966585;28;20210;-79
2023/06/13 08:25:18;;;;;;;4.57;3.83;;;25.30;77.10;;;;;;4959292;28;20642;-80
2023/06/13 08:27:46;;;;;;;3.90;3.50;;;25.90;75.60;;;;;;4961291;28;20207;-79
2023/06/13 08:30:14;;;;;;;5.40;4.87;;;26.40;75.10;;;;;;4964050;28;20225;-80
2023/06/13 08:32:41;;;;;;;5.87;5.23;;;26.70;74.60;;;;;;4963308;28;20203;-80
2023/06/13 08:35:08;;;;;;;7.43;5.83;;;26.50;73.10;;;;;;4969587;28;20206;-82
2023/06/13 08:37:37;;;;;;;6.33;5.80;;;26.60;72.50;;;;;;4969203;28;20234;-82
2023/06/13 08:40:06;;;;;;;6.90;6.30;;;26.50;72.20;;;;;;4968059;28;20195;-83
2023/06/13 08:42:33;;;;;;;8.73;5.70;;;26.10;71.40;;;;;;4964035;28;20202;-82
2023/06/13 08:45:01;;;;;;;6.23;5.50;;;26.00;74.00;;;;;;4972325;28;20257;-82
2023/06/13 08:47:29;;;;;;;6.33;5.23;;;25.80;72.20;;;;;;4971039;28;20269;-81
2023/06/13 08:49:56;;;;;;;6.53;5.87;;;25.90;71.70;;;;;;4964408;28;20206;-81
2023/06/13 08:52:26;;;;;;;6.13;5.53;;;25.30;71.00;;;;;;4974211;28;20559;-81
2023/06/13 08:54:59;;;;;;;6.60;3.87;;;24.90;74.30;;;;;;4975468;28;20813;-82
2023/06/13 08:57:28;;;;;;;5.73;5.23;;;25.10;72.40;;;;;;4965433;28;20218;-81
2023/06/13 08:59:57;;;;;;;4.20;3.50;;;25.40;75.20;;;;;;4971802;28;20677;-82
2023/06/13 09:02:25;;;;;;;5.87;3.60;;;25.60;71.70;;;;;;4969174;28;20221;-82
2023/06/13 09:04:52;;;;;;;5.50;3.63;;;25.60;71.40;;;;;;4969533;28;20751;-83
2023/06/13 09:07:21;;;;;;;8.10;3.40;;;25.70;73.10;;;;;;4977365;28;20194;-82
2023/06/13 09:09:51;;;;;;;4.60;3.60;;;25.70;71.80;;;;;;4967101;28;20744;-84
2023/06/13 09:12:20;;;;;;;5.03;3.20;;;25.40;71.80;;;;;;4975583;28;20198;-82
2023/06/13 09:14:47;;;;;;;4.73;3.30;;;25.40;70.50;;;;;;4974892;28;20210;-82
2023/06/13 09:17:14;;;;;;;5.40;4.90;;;25.60;72.80;;;;;;4958198;28;20207;-82
2023/06/13 09:19:41;;;;;;;5.97;5.47;;;26.10;73.40;;;;;;4983104;28;20247;-79
2023/06/13 09:22:08;;;;;;;6.13;4.10;;;26.60;74.30;;;;;;4965118;28;20798;-79
2023/06/13 09:24:36;;;;;;;6.83;5.90;;;26.50;69.10;;;;;;4978444;28;20209;-78
2023/06/13 09:27:04;;;;;;;8.70;6.53;;;26.60;71.40;;;;;;4973519;28;20222;-79
2023/06/13 09:29:36;;;;;;;6.83;5.40;;;26.80;71.80;;;;;;4970895;28;20205;-79
2023/06/13 09:32:05;;;;;;;9.23;5.07;;;27.20;72.30;;;;;;4974738;28;20221;-78
2023/06/13 09:34:32;;;;;;;4.70;3.20;;;27.00;70.00;;;;;;4973240;28;20292;-79
2023/06/13 09:37:00;;;;;;;4.00;3.33;;;26.90;73.90;;;;;;4972993;28;20612;-78
2023/06/13 09:39:28;;;;;;;5.77;3.57;;;26.30;71.30;;;;;;4974359;28;20197;-79
2023/06/13 09:41:56;;;;;;;5.33;3.50;;;26.60;70.60;;;;;;4974300;28;20564;-78
2023/06/13 09:44:24;;;;;;;4.83;3.10;;;26.40;66.80;;;;;;4973326;28;20606;-79
2023/06/13 09:46:52;;;;;;;6.33;4.53;;;26.50;66.40;;;;;;4980923;28;20197;-79
2023/06/13 09:49:20;;;;;;;7.03;6.40;;;26.90;68.80;;;;;;4974470;28;20209;-79
2023/06/13 09:51:46;;;;;;;7.73;6.00;;;26.70;68.60;;;;;;4974762;28;20230;-79
2023/06/13 09:54:15;;;;;;;6.83;6.13;;;26.60;69.20;;;;;;4973931;28;20225;-79
2023/06/13 09:56:43;;;;;;;6.90;6.33;;;26.60;68.20;;;;;;4973239;28;20201;-79
2023/06/13 09:59:15;;;;;;;7.17;6.03;;;26.80;69.70;;;;;;4973905;28;20669;-78
2023/06/13 10:01:43;;;;;;;5.70;5.20;;;26.90;65.50;;;;;;4968493;28;20202;-79
2023/06/13 10:04:11;;;;;;;5.70;5.20;;;27.00;68.70;;;;;;4969120;28;20673;-79
2023/06/13 10:06:38;;;;;;;6.53;6.00;;;27.00;65.90;;;;;;4961432;28;20212;-78
2023/06/13 10:09:05;;;;;;;7.77;6.10;;;27.00;67.30;;;;;;4969603;28;20212;-78
2023/06/13 10:11:35;;;;;;;4.47;4.07;;;27.30;64.80;;;;;;4968349;28;20628;-78
2023/06/13 10:14:06;;;;;;;7.83;3.40;;;27.30;65.40;;;;;;4974287;28;20220;-78
2023/06/13 10:16:37;;;;;;;6.53;5.40;;;27.30;65.00;;;;;;4973698;28;20202;-79
2023/06/13 10:19:06;;;;;;;6.07;5.30;;;27.00;63.60;;;;;;4972449;28;20201;-79
2023/06/13 10:21:37;;;;;;;6.70;5.43;;;26.80;65.00;;;;;;4973198;28;20297;-79
2023/06/13 10:24:04;;;;;;;5.07;3.30;;;26.60;64.20;;;;;;4972259;28;20218;-78
2023/06/13 10:26:36;;;;;;;6.50;3.40;;;26.80;65.50;;;;;;4973351;28;21283;-79
2023/06/13 10:29:29;;;;;;;5.60;3.57;;;26.70;63.70;;;;;;4971324;28;20699;-79
2023/06/13 10:32:09;;;;;;;3.83;3.47;;;26.00;63.50;;;;;;4970902;28;20229;-78
2023/06/13 10:35:01;;;;;;;4.43;3.70;;;26.00;66.50;;;;;;4968342;28;20276;-78
2023/06/13 10:37:53;;;;;;;6.70;6.07;;;25.70;66.10;;;;;;4961908;28;20272;-79
2023/06/13 10:40:42;;;;;;;9.33;5.90;;;25.70;66.10;;;;;;4962692;28;20201;-78
2023/06/13 10:43:16;;;;;;;5.60;5.10;;;25.80;65.20;;;;;;4956909;28;20776;-79
2023/06/13 10:45:45;;;;;;;6.67;5.67;;;25.30;66.70;;;;;;4964498;28;20204;-78
2023/06/13 10:48:13;;;;;;;3.70;3.20;;;25.30;65.50;;;;;;4968919;28;20665;-78
2023/06/13 10:50:41;;;;;;;6.47;5.87;;;25.30;65.50;;;;;;4965612;28;20214;-78
2023/06/13 10:53:10;;;;;;;5.83;3.60;;;25.30;64.60;;;;;;4961220;28;20717;-78
2023/06/13 10:55:40;;;;;;;6.40;3.40;;;25.20;64.60;;;;;;4965277;28;20205;-78
2023/06/13 10:58:12;;;;;;;4.97;4.57;;;25.40;67.30;;;;;;4974430;28;20229;-78
2023/06/13 11:00:40;;;;;;;5.90;4.03;;;25.70;68.50;;;;;;4974853;28;20754;-77
2023/06/13 11:03:09;;;;;;;8.70;5.17;;;25.50;67.00;;;;;;4980253;28;20225;-78
2023/06/13 11:05:47;;;;;;;6.33;5.70;;;25.10;65.20;;;;;;4963793;28;20206;-78
2023/06/13 11:08:16;;;;;;;6.57;6.07;;;25.20;65.80;;;;;;4958501;28;20253;-78
2023/06/13 11:10:43;;;;;;;4.80;3.17;;;25.30;67.70;;;;;;4965886;28;20601;-78
2023/06/13 11:13:17;;;;;;;4.20;3.30;;;25.50;66.50;;;;;;4961366;28;20222;-78
2023/06/13 11:15:44;;;;;;;9.93;3.90;;;25.50;65.00;;;;;;4964759;28;20203;-78
2023/06/13 11:18:35;;;;;;;5.43;3.47;;;25.60;68.40;;;;;;4972542;28;20200;-78
2023/06/13 11:21:03;;;;;;;8.10;6.10;;;25.30;64.90;;;;;;4975131;28;20194;-79
2023/06/13 11:23:48;;;;;;;6.50;5.90;;;25.00;65.50;;;;;;4970053;28;20221;-82
2023/06/13 11:26:19;;;;;;;5.17;3.43;;;25.00;65.70;;;;;;4965670;28;20684;-82
2023/06/13 11:28:47;;;;;;;5.20;3.83;;;25.10;65.90;;;;;;4964040;28;20225;-81
2023/06/13 11:31:15;;;;;;;6.70;6.17;;;25.00;67.00;;;;;;4960415;28;20218;-81
2023/06/13 11:33:45;;;;;;;7.10;6.50;;;25.10;64.40;;;;;;4965269;28;20226;-81
2023/06/13 11:36:13;;;;;;;3.97;3.50;;;24.90;64.70;;;;;;4972987;28;20249;-81
2023/06/13 11:38:48;;;;;;;7.90;4.50;;;25.00;67.30;;;;;;4964058;28;20203;-81
2023/06/13 11:41:15;;;;;;;10.50;6.40;;;24.60;66.20;;;;;;4960462;28;20209;-82
2023/06/13 11:43:43;;;;;;;7.60;6.83;;;24.60;67.70;;;;;;4971326;28;20270;-81
2023/06/13 11:46:13;;;;;;;6.87;6.27;;;24.90;67.20;;;;;;4960948;28;20202;-81
2023/06/13 11:48:40;;;;;;;7.50;6.13;;;24.90;67.90;;;;;;4964078;28;20202;-81
2023/06/13 11:51:11;;;;;;;7.57;5.80;;;25.00;66.60;;;;;;4969546;28;20260;-81
2023/06/13 11:53:54;;;;;;;6.70;6.00;;;25.10;67.50;;;;;;4971150;28;20231;-81
2023/06/13 11:56:23;;;;;;;6.10;5.47;;;24.90;66.10;;;;;;4980820;28;20202;-81
2023/06/13 11:58:51;;;;;;;5.67;5.17;;;24.80;66.30;;;;;;4975940;28;20198;-81
2023/06/13 12:01:21;;;;;;;6.40;5.80;;;24.90;65.70;;;;;;4974036;28;20230;-81
2023/06/13 12:03:48;;;;;;;8.37;5.33;;;24.90;67.10;;;;;;4975603;28;20229;-81
2023/06/13 12:06:16;;;;;;;4.97;3.43;;;25.10;68.10;;;;;;4967190;28;20258;-81
2023/06/13 12:08:45;;;;;;;6.83;4.20;;;25.20;66.40;;;;;;4971908;28;20226;-81
2023/06/13 12:11:15;;;;;;;3.60;3.30;;;25.00;65.50;;;;;;4960388;28;20214;-80
2023/06/13 12:13:42;;;;;;;4.77;3.70;;;24.90;64.70;;;;;;4957269;28;20713;-81
2023/06/13 12:16:09;;;;;;;6.43;5.23;;;24.90;66.00;;;;;;4966472;28;20206;-81
2023/06/13 12:18:36;;;;;;;5.50;4.60;;;24.90;65.50;;;;;;4971885;28;20197;-81
2023/06/13 12:21:03;;;;;;;8.47;5.60;;;24.70;65.50;;;;;;4961936;28;20194;-81
2023/06/13 12:23:30;;;;;;;7.63;7.00;;;24.40;66.60;;;;;;4962833;28;20229;-81
2023/06/13 12:25:59;;;;;;;7.43;6.00;;;24.50;65.60;;;;;;4959850;28;20213;-81
2023/06/13 12:28:28;;;;;;;5.57;3.83;;;24.50;64.30;;;;;;4966965;28;20202;-81
2023/06/13 12:30:57;;;;;;;4.83;3.50;;;24.40;64.20;;;;;;4971508;28;20285;-81
2023/06/13 12:33:33;;;;;;;6.00;4.17;;;24.80;67.60;;;;;;4969296;28;20656;-81
2023/06/13 12:36:01;;;;;;;6.03;3.87;;;24.90;66.80;;;;;;4960421;28;20202;-82
2023/06/13 12:38:31;;;;;;;6.10;4.03;;;25.10;63.10;;;;;;4962096;28;20195;-81
2023/06/13 12:40:58;;;;;;;4.43;3.70;;;24.90;62.20;;;;;;4966816;28;20302;-81
2023/06/13 12:43:27;;;;;;;4.87;3.97;;;25.00;64.90;;;;;;4961482;28;20280;-81
2023/06/13 12:45:56;;;;;;;9.53;7.20;;;24.90;64.00;;;;;;4959213;28;20700;-81
2023/06/13 12:48:24;;;;;;;7.83;5.10;;;25.00;67.30;;;;;;4964548;28;20202;-82
2023/06/13 12:50:52;;;;;;;10.50;5.67;;;24.80;65.60;;;;;;4965410;28;20202;-82
2023/06/13 12:53:20;;;;;;;13.67;6.17;;;24.70;66.00;;;;;;4959571;28;20317;-82